createdAt,value
2023-04-30T00:00:16.227Z,97.37
2023-04-30T00:01:16.213Z,97.37
2023-04-30T00:02:16.281Z,97.47
2023-04-30T00:03:16.245Z,97.22
2023-04-30T00:04:16.297Z,97.06
2023-04-30T00:05:16.173Z,97.16
2023-04-30T00:06:16.185Z,97.37
2023-04-30T00:07:16.167Z,97.16
2023-04-30T00:08:16.168Z,97.06
2023-04-30T00:09:16.155Z,97.16
2023-04-30T00:10:16.129Z,97.16
2023-04-30T00:11:16.118Z,97.37
2023-04-30T00:12:16.107Z,97.37
2023-04-30T00:13:16.084Z,97.57
2023-04-30T00:14:16.081Z,97.27
2023-04-30T00:15:16.095Z,97.37
2023-04-30T00:16:16.081Z,96.96
2023-04-30T00:17:16.049Z,96.96
2023-04-30T00:18:16.039Z,96.86
2023-04-30T00:19:16.072Z,96.91
2023-04-30T00:20:16.019Z,97.21
2023-04-30T00:21:16.020Z,96.34
2023-04-30T00:22:16.019Z,96.59
2023-04-30T00:23:15.980Z,96.49
2023-04-30T00:24:15.989Z,96.70
2023-04-30T00:25:15.982Z,96.80
2023-04-30T00:26:15.961Z,96.49
2023-04-30T00:27:15.971Z,96.49
2023-04-30T00:28:15.924Z,96.49
2023-04-30T00:29:15.914Z,96.54
2023-04-30T00:30:15.906Z,96.29
2023-04-30T00:31:15.904Z,96.44
2023-04-30T00:32:15.925Z,97.15
2023-04-30T00:33:15.885Z,97.05
2023-04-30T00:34:15.864Z,97.05
2023-04-30T00:35:15.885Z,96.54
2023-04-30T00:36:15.868Z,96.74
2023-04-30T00:37:15.826Z,96.74
2023-04-30T00:38:15.835Z,96.54
2023-04-30T00:39:15.809Z,96.44
2023-04-30T00:40:15.815Z,96.74
2023-04-30T00:41:15.797Z,96.64
2023-04-30T00:42:15.777Z,96.54
2023-04-30T00:43:15.803Z,96.58
2023-04-30T00:44:15.754Z,96.79
2023-04-30T00:45:15.744Z,96.79
2023-04-30T00:46:15.782Z,96.58
2023-04-30T00:47:15.746Z,96.48
2023-04-30T00:48:15.712Z,96.89
2023-04-30T00:49:15.689Z,96.48
2023-04-30T00:50:15.688Z,96.28
2023-04-30T00:51:15.680Z,96.38
2023-04-30T00:52:15.704Z,96.28
2023-04-30T00:53:15.652Z,96.38
2023-04-30T00:54:15.668Z,96.38
2023-04-30T00:55:15.723Z,96.63
2023-04-30T00:56:15.636Z,96.42
2023-04-30T00:57:15.649Z,96.01
2023-04-30T00:58:15.619Z,96.32
2023-04-30T00:59:15.588Z,95.91
2023-04-30T01:00:15.615Z,96.32
2023-04-30T01:01:15.621Z,96.53
2023-04-30T01:02:15.595Z,96.94
2023-04-30T01:03:15.648Z,96.42
2023-04-30T01:04:15.561Z,96.53
2023-04-30T01:05:15.523Z,96.42
2023-04-30T01:06:15.525Z,96.32
2023-04-30T01:07:15.550Z,96.47
2023-04-30T01:08:15.498Z,96.47
2023-04-30T01:09:15.484Z,96.26
2023-04-30T01:10:15.487Z,96.01
2023-04-30T01:11:15.471Z,96.26
2023-04-30T01:12:15.466Z,96.57
2023-04-30T01:13:15.469Z,96.37
2023-04-30T01:14:15.426Z,96.67
2023-04-30T01:15:15.429Z,97.08
2023-04-30T01:16:15.464Z,96.88
2023-04-30T01:17:15.447Z,96.88
2023-04-30T01:18:15.578Z,96.57
2023-04-30T01:19:15.465Z,96.67
2023-04-30T01:20:15.361Z,97.29
2023-04-30T01:21:15.350Z,97.23
2023-04-30T01:22:15.338Z,97.49
2023-04-30T01:23:15.345Z,96.88
2023-04-30T01:24:15.313Z,96.92
2023-04-30T01:25:15.330Z,97.33
2023-04-30T01:26:15.289Z,97.23
2023-04-30T01:27:15.283Z,97.33
2023-04-30T01:28:15.272Z,97.33
2023-04-30T01:29:15.351Z,97.23
2023-04-30T01:30:15.273Z,97.33
2023-04-30T01:31:15.334Z,97.19
2023-04-30T01:32:15.233Z,97.23
2023-04-30T01:33:15.223Z,96.72
2023-04-30T01:34:15.237Z,96.72
2023-04-30T01:35:15.207Z,96.82
2023-04-30T01:36:15.211Z,96.72
2023-04-30T01:37:15.184Z,96.82
2023-04-30T01:38:15.184Z,96.62
2023-04-30T01:39:15.162Z,96.72
2023-04-30T01:40:15.162Z,96.97
2023-04-30T01:41:15.136Z,97.03
2023-04-30T01:42:15.149Z,96.72
2023-04-30T01:43:15.130Z,96.41
2023-04-30T01:44:15.101Z,96.45
2023-04-30T01:45:15.127Z,96.56
2023-04-30T01:46:15.195Z,96.35
2023-04-30T01:47:15.074Z,96.25
2023-04-30T01:48:15.059Z,96.56
2023-04-30T01:49:15.069Z,96.25
2023-04-30T01:50:15.045Z,96.87
2023-04-30T01:51:15.055Z,96.77
2023-04-30T01:52:15.016Z,97.28
2023-04-30T01:53:15.006Z,97.42
2023-04-30T01:54:14.991Z,97.63
2023-04-30T01:55:15.008Z,97.73
2023-04-30T01:56:14.992Z,97.94
2023-04-30T01:57:14.981Z,97.53
2023-04-30T01:58:14.953Z,97.94
2023-04-30T01:59:14.942Z,97.73
2023-04-30T02:00:14.980Z,97.63
2023-04-30T02:01:15.002Z,97.32
2023-04-30T02:02:14.909Z,97.53
2023-04-30T02:03:14.965Z,97.73
2023-04-30T02:04:14.881Z,97.88
2023-04-30T02:05:14.875Z,97.88
2023-04-30T02:06:14.925Z,97.99
2023-04-30T02:07:14.869Z,97.47
2023-04-30T02:08:14.859Z,97.78
2023-04-30T02:09:14.842Z,97.67
2023-04-30T02:10:14.824Z,97.57
2023-04-30T02:11:14.821Z,97.67
2023-04-30T02:12:14.812Z,97.57
2023-04-30T02:13:14.793Z,97.78
2023-04-30T02:14:14.788Z,97.57
2023-04-30T02:15:14.779Z,97.47
2023-04-30T02:16:14.838Z,97.67
2023-04-30T02:17:14.754Z,97.57
2023-04-30T02:18:14.785Z,97.78
2023-04-30T02:19:14.737Z,98.50
2023-04-30T02:20:14.722Z,97.88
2023-04-30T02:21:14.747Z,98.08
2023-04-30T02:22:14.703Z,97.88
2023-04-30T02:23:14.715Z,97.78
2023-04-30T02:24:14.695Z,97.57
2023-04-30T02:25:14.665Z,98.08
2023-04-30T02:26:14.654Z,98.50
2023-04-30T02:27:14.638Z,98.80
2023-04-30T02:28:14.663Z,98.80
2023-04-30T02:29:14.628Z,98.60
2023-04-30T02:30:14.600Z,98.60
2023-04-30T02:31:14.674Z,98.70
2023-04-30T02:32:14.584Z,98.70
2023-04-30T02:33:14.590Z,98.50
2023-04-30T02:34:14.586Z,98.29
2023-04-30T02:35:14.547Z,98.39
2023-04-30T02:36:14.568Z,98.80
2023-04-30T02:37:14.559Z,99.01
2023-04-30T02:38:14.515Z,99.42
2023-04-30T02:39:14.507Z,99.11
2023-04-30T02:40:14.503Z,98.91
2023-04-30T02:41:14.486Z,99.21
2023-04-30T02:42:14.465Z,99.11
2023-04-30T02:43:14.475Z,98.80
2023-04-30T02:44:14.446Z,98.85
2023-04-30T02:45:14.453Z,99.05
2023-04-30T02:46:14.456Z,99.01
2023-04-30T02:47:14.417Z,98.60
2023-04-30T02:48:14.403Z,98.70
2023-04-30T02:49:14.417Z,98.50
2023-04-30T02:50:14.376Z,98.80
2023-04-30T02:51:14.397Z,98.13
2023-04-30T02:52:14.368Z,98.24
2023-04-30T02:53:14.377Z,98.03
2023-04-30T02:54:14.339Z,98.33
2023-04-30T02:55:14.366Z,98.54
2023-04-30T02:56:14.314Z,97.92
2023-04-30T02:57:14.311Z,97.87
2023-04-30T02:58:14.321Z,97.82
2023-04-30T02:59:14.291Z,97.72
2023-04-30T03:00:14.269Z,97.62
2023-04-30T03:01:14.310Z,97.31
2023-04-30T03:02:14.273Z,97.45
2023-04-30T03:03:14.296Z,97.52
2023-04-30T03:04:14.256Z,97.77
2023-04-30T03:05:14.236Z,97.77
2023-04-30T03:06:14.264Z,97.56
2023-04-30T03:07:14.222Z,97.77
2023-04-30T03:08:14.273Z,97.72
2023-04-30T03:09:14.202Z,97.62
2023-04-30T03:10:14.180Z,97.66
2023-04-30T03:11:14.160Z,97.72
2023-04-30T03:12:14.144Z,97.87
2023-04-30T03:13:14.160Z,98.28
2023-04-30T03:14:14.119Z,98.38
2023-04-30T03:15:14.120Z,98.38
2023-04-30T03:16:14.125Z,98.28
2023-04-30T03:17:14.106Z,98.28
2023-04-30T03:18:14.133Z,98.07
2023-04-30T03:19:14.099Z,97.97
2023-04-30T03:20:14.058Z,98.28
2023-04-30T03:21:14.072Z,98.07
2023-04-30T03:22:14.041Z,98.28
2023-04-30T03:23:14.044Z,98.18
2023-04-30T03:24:14.021Z,98.49
2023-04-30T03:25:14.013Z,97.87
2023-04-30T03:26:14.011Z,97.77
2023-04-30T03:27:13.998Z,97.77
2023-04-30T03:28:13.971Z,97.77
2023-04-30T03:29:13.965Z,97.56
2023-04-30T03:30:13.958Z,97.66
2023-04-30T03:31:13.996Z,97.77
2023-04-30T03:32:13.932Z,97.87
2023-04-30T03:33:14.006Z,97.97
2023-04-30T03:34:13.910Z,97.97
2023-04-30T03:35:13.917Z,97.87
2023-04-30T03:36:13.905Z,97.77
2023-04-30T03:37:21.482Z,97.66
2023-04-30T03:38:13.887Z,97.77
2023-04-30T03:39:13.923Z,97.97
2023-04-30T03:40:13.845Z,97.66
2023-04-30T03:41:13.861Z,97.66
2023-04-30T03:42:13.875Z,97.36
2023-04-30T03:43:13.814Z,97.36
2023-04-30T03:44:13.825Z,97.87
2023-04-30T03:45:13.787Z,97.77
2023-04-30T03:46:13.814Z,97.66
2023-04-30T03:47:13.829Z,97.77
2023-04-30T03:48:13.858Z,97.87
2023-04-30T03:49:13.780Z,97.87
2023-04-30T03:50:13.738Z,97.61
2023-04-30T03:51:13.746Z,97.66
2023-04-30T03:52:13.749Z,97.66
2023-04-30T03:53:13.736Z,97.97
2023-04-30T03:54:13.695Z,97.97
2023-04-30T03:55:13.692Z,97.97
2023-04-30T03:56:13.677Z,97.87
2023-04-30T03:57:13.686Z,97.87
2023-04-30T03:58:13.737Z,97.81
2023-04-30T03:59:13.674Z,97.61
2023-04-30T04:00:13.661Z,97.61
2023-04-30T04:01:13.621Z,97.61
2023-04-30T04:02:13.643Z,97.50
2023-04-30T04:03:13.723Z,97.50
2023-04-30T04:04:13.677Z,97.61
2023-04-30T04:05:13.592Z,97.71
2023-04-30T04:06:13.598Z,97.61
2023-04-30T04:07:13.593Z,97.81
2023-04-30T04:08:13.548Z,97.71
2023-04-30T04:09:13.578Z,97.71
2023-04-30T04:10:13.537Z,97.50
2023-04-30T04:11:13.514Z,97.61
2023-04-30T04:12:13.503Z,97.40
2023-04-30T04:13:13.549Z,97.71
2023-04-30T04:14:13.477Z,97.50
2023-04-30T04:15:13.526Z,98.12
2023-04-30T04:16:13.491Z,97.81
2023-04-30T04:17:13.451Z,97.45
2023-04-30T04:18:13.451Z,97.87
2023-04-30T04:19:13.539Z,98.18
2023-04-30T04:20:14.137Z,98.59
2023-04-30T04:21:13.428Z,98.38
2023-04-30T04:22:13.390Z,98.49
2023-04-30T04:23:13.395Z,98.90
2023-04-30T04:24:13.395Z,99.41
2023-04-30T04:25:13.384Z,99.31
2023-04-30T04:26:13.345Z,99.21
2023-04-30T04:27:13.354Z,99.00
2023-04-30T04:28:13.346Z,99.31
2023-04-30T04:29:13.380Z,99.51
2023-04-30T04:30:13.342Z,98.90
2023-04-30T04:31:13.347Z,99.00
2023-04-30T04:32:13.312Z,99.00
2023-04-30T04:33:13.315Z,99.00
2023-04-30T04:34:13.290Z,98.90
2023-04-30T04:35:13.416Z,99.05
2023-04-30T04:36:13.263Z,99.72
2023-04-30T04:37:13.256Z,99.57
2023-04-30T04:38:13.258Z,99.99
2023-04-30T04:39:13.212Z,99.93
2023-04-30T04:40:13.203Z,99.57
2023-04-30T04:41:13.253Z,99.77
2023-04-30T04:42:13.188Z,99.99
2023-04-30T04:43:13.179Z,99.99
2023-04-30T04:44:13.152Z,99.99
2023-04-30T04:45:13.170Z,99.99
2023-04-30T04:46:14.432Z,99.99
2023-04-30T04:47:13.140Z,99.99
2023-04-30T04:48:13.105Z,99.98
2023-04-30T04:49:13.137Z,99.99
2023-04-30T04:50:13.109Z,99.88
2023-04-30T04:51:13.091Z,99.99
2023-04-30T04:52:13.072Z,99.99
2023-04-30T04:53:13.064Z,99.99
2023-04-30T04:54:13.114Z,99.99
2023-04-30T04:55:13.087Z,99.99
2023-04-30T04:56:13.030Z,99.99
2023-04-30T04:57:13.057Z,99.99
2023-04-30T04:58:12.999Z,99.99
2023-04-30T04:59:13.017Z,99.99
2023-04-30T05:00:12.990Z,99.99
2023-04-30T05:01:13.056Z,99.99
2023-04-30T05:02:12.963Z,99.99
2023-04-30T05:03:13.097Z,99.99
2023-04-30T05:04:12.938Z,99.99
2023-04-30T05:05:12.953Z,99.99
2023-04-30T05:06:12.969Z,99.99
2023-04-30T05:07:12.909Z,99.99
2023-04-30T05:08:12.955Z,99.99
2023-04-30T05:09:12.890Z,99.99
2023-04-30T05:10:12.885Z,99.99
2023-04-30T05:11:14.216Z,99.99
2023-04-30T05:12:12.910Z,99.99
2023-04-30T05:13:12.857Z,99.99
2023-04-30T05:14:12.831Z,99.99
2023-04-30T05:15:12.835Z,99.99
2023-04-30T05:16:12.878Z,99.99
2023-04-30T05:17:12.825Z,99.99
2023-04-30T05:18:12.796Z,99.99
2023-04-30T05:19:12.802Z,99.99
2023-04-30T05:20:12.789Z,99.99
2023-04-30T05:21:12.795Z,99.99
2023-04-30T05:22:12.745Z,99.99
2023-04-30T05:23:12.741Z,99.99
2023-04-30T05:24:12.786Z,99.99
2023-04-30T05:25:12.705Z,99.99
2023-04-30T05:26:12.726Z,99.99
2023-04-30T05:27:12.736Z,99.99
2023-04-30T05:28:12.693Z,99.99
2023-04-30T05:29:12.678Z,99.99
2023-04-30T05:30:12.655Z,99.99
2023-04-30T05:31:12.714Z,99.99
2023-04-30T05:32:12.738Z,99.99
2023-04-30T05:33:12.674Z,99.99
2023-04-30T05:34:12.636Z,99.99
2023-04-30T05:35:12.602Z,99.99
2023-04-30T05:36:12.597Z,99.99
2023-04-30T05:37:12.573Z,99.99
2023-04-30T05:38:12.591Z,99.99
2023-04-30T05:39:12.594Z,99.99
2023-04-30T05:40:12.558Z,99.99
2023-04-30T05:41:12.535Z,99.99
2023-04-30T05:42:12.543Z,99.99
2023-04-30T05:43:12.539Z,99.99
2023-04-30T05:44:12.563Z,99.93
2023-04-30T05:45:12.532Z,99.99
2023-04-30T05:46:12.548Z,99.99
2023-04-30T05:47:12.471Z,99.99
2023-04-30T05:48:12.555Z,99.99
2023-04-30T05:49:12.491Z,99.99
2023-04-30T05:50:12.493Z,99.99
2023-04-30T05:51:12.428Z,99.99
2023-04-30T05:52:12.421Z,99.99
2023-04-30T05:53:12.404Z,99.99
2023-04-30T05:54:12.410Z,99.99
2023-04-30T05:55:12.450Z,99.99
2023-04-30T05:56:12.387Z,99.99
2023-04-30T05:57:12.388Z,99.99
2023-04-30T05:58:12.360Z,99.99
2023-04-30T05:59:12.337Z,99.99
2023-04-30T06:00:12.359Z,99.99
2023-04-30T06:01:12.477Z,99.79
2023-04-30T06:02:12.372Z,99.99
2023-04-30T06:03:12.316Z,99.89
2023-04-30T06:04:12.282Z,99.79
2023-04-30T06:05:14.636Z,99.99
2023-04-30T06:06:12.419Z,99.99
2023-04-30T06:07:12.274Z,99.58
2023-04-30T06:08:12.275Z,99.99
2023-04-30T06:09:12.267Z,99.99
2023-04-30T06:10:12.225Z,99.99
2023-04-30T06:11:12.234Z,99.99
2023-04-30T06:12:12.217Z,99.99
2023-04-30T06:13:12.265Z,99.99
2023-04-30T06:14:12.182Z,99.99
2023-04-30T06:15:12.186Z,99.99
2023-04-30T06:16:12.246Z,99.99
2023-04-30T06:17:12.175Z,99.99
2023-04-30T06:18:12.145Z,99.99
2023-04-30T06:19:12.175Z,99.99
2023-04-30T06:20:12.115Z,99.99
2023-04-30T06:21:12.101Z,99.99
2023-04-30T06:22:12.135Z,99.99
2023-04-30T06:23:12.109Z,99.99
2023-04-30T06:24:12.082Z,99.99
2023-04-30T06:25:12.093Z,99.73
2023-04-30T06:26:12.070Z,99.99
2023-04-30T06:27:12.074Z,99.93
2023-04-30T06:28:12.040Z,99.93
2023-04-30T06:29:12.014Z,99.99
2023-04-30T06:30:12.032Z,99.99
2023-04-30T06:31:12.025Z,99.99
2023-04-30T06:32:11.994Z,99.99
2023-04-30T06:33:12.003Z,99.99
2023-04-30T06:34:12.060Z,99.89
2023-04-30T06:35:11.955Z,99.93
2023-04-30T06:36:11.957Z,99.93
2023-04-30T06:37:11.937Z,99.99
2023-04-30T06:38:11.919Z,99.99
2023-04-30T06:39:11.948Z,99.99
2023-04-30T06:40:11.902Z,99.99
2023-04-30T06:41:11.885Z,99.99
2023-04-30T06:42:11.875Z,99.68
2023-04-30T06:43:11.887Z,99.99
2023-04-30T06:44:11.914Z,99.99
2023-04-30T06:45:11.846Z,99.99
2023-04-30T06:46:11.971Z,99.99
2023-04-30T06:47:11.836Z,99.95
2023-04-30T06:48:11.829Z,99.99
2023-04-30T06:49:11.844Z,99.49
2023-04-30T06:50:11.847Z,99.99
2023-04-30T06:51:11.777Z,99.90
2023-04-30T06:52:11.790Z,99.90
2023-04-30T06:53:11.782Z,99.75
2023-04-30T06:54:11.772Z,99.24
2023-04-30T06:55:11.740Z,99.65
2023-04-30T06:56:11.771Z,99.75
2023-04-30T06:57:11.726Z,99.13
2023-04-30T06:58:11.712Z,98.83
2023-04-30T06:59:11.740Z,99.03
2023-04-30T07:00:11.688Z,98.99
2023-04-30T07:01:11.758Z,98.58
2023-04-30T07:02:11.682Z,98.37
2023-04-30T07:03:11.840Z,98.37
2023-04-30T07:04:11.644Z,98.07
2023-04-30T07:05:11.670Z,97.91
2023-04-30T07:06:11.675Z,97.80
2023-04-30T07:07:11.613Z,98.32
2023-04-30T07:08:11.623Z,98.52
2023-04-30T07:09:11.575Z,98.68
2023-04-30T07:10:11.572Z,98.78
2023-04-30T07:11:11.581Z,97.86
2023-04-30T07:12:11.573Z,98.37
2023-04-30T07:13:11.535Z,98.53
2023-04-30T07:14:11.528Z,98.22
2023-04-30T07:15:11.516Z,97.77
2023-04-30T07:16:11.650Z,96.95
2023-04-30T07:17:11.502Z,97.36
2023-04-30T07:18:11.607Z,97.11
2023-04-30T07:19:11.491Z,96.49
2023-04-30T07:20:11.465Z,95.73
2023-04-30T07:21:11.477Z,96.04
2023-04-30T07:22:11.445Z,95.94
2023-04-30T07:23:11.436Z,95.07
2023-04-30T07:24:11.440Z,95.13
2023-04-30T07:25:11.411Z,95.13
2023-04-30T07:26:11.417Z,95.25
2023-04-30T07:27:11.384Z,93.31
2023-04-30T07:28:11.401Z,92.86
2023-04-30T07:29:11.380Z,91.89
2023-04-30T07:30:11.362Z,91.89
2023-04-30T07:31:11.369Z,90.94
2023-04-30T07:32:11.332Z,90.94
2023-04-30T07:33:11.439Z,90.48
2023-04-30T07:34:11.344Z,89.53
2023-04-30T07:35:11.318Z,87.59
2023-04-30T07:36:11.294Z,88.71
2023-04-30T07:37:11.323Z,89.53
2023-04-30T07:38:11.279Z,88.10
2023-04-30T07:39:11.256Z,87.75
2023-04-30T07:40:12.065Z,88.53
2023-04-30T07:41:11.231Z,87.57
2023-04-30T07:42:11.223Z,86.92
2023-04-30T07:43:11.233Z,85.66
2023-04-30T07:44:11.210Z,85.11
2023-04-30T07:45:11.219Z,83.22
2023-04-30T07:46:11.216Z,83.42
2023-04-30T07:47:11.182Z,84.36
2023-04-30T07:48:11.218Z,83.28
2023-04-30T07:49:11.155Z,83.42
2023-04-30T07:50:11.162Z,84.50
2023-04-30T07:51:11.156Z,84.09
2023-04-30T07:52:11.147Z,82.92
2023-04-30T07:53:11.133Z,83.01
2023-04-30T07:54:11.109Z,84.23
2023-04-30T07:55:11.094Z,83.28
2023-04-30T07:56:11.074Z,83.73
2023-04-30T07:57:11.088Z,83.99
2023-04-30T07:58:11.054Z,83.65
2023-04-30T07:59:11.038Z,83.31
2023-04-30T08:00:11.035Z,83.06
2023-04-30T08:01:11.041Z,82.62
2023-04-30T08:02:11.035Z,82.17
2023-04-30T08:03:11.063Z,80.01
2023-04-30T08:04:11.115Z,77.98
2023-04-30T08:05:10.976Z,78.86
2023-04-30T08:06:11.032Z,77.64
2023-04-30T08:07:10.953Z,76.77
2023-04-30T08:08:10.952Z,77.54
2023-04-30T08:09:10.954Z,77.03
2023-04-30T08:10:10.936Z,78.01
2023-04-30T08:11:10.949Z,78.92
2023-04-30T08:12:10.901Z,77.50
2023-04-30T08:13:10.891Z,77.87
2023-04-30T08:14:10.880Z,78.24
2023-04-30T08:15:10.880Z,79.25
2023-04-30T08:16:10.906Z,77.09
2023-04-30T08:17:10.840Z,74.87
2023-04-30T08:18:10.940Z,74.97
2023-04-30T08:19:10.868Z,76.25
2023-04-30T08:20:10.823Z,74.69
2023-04-30T08:21:10.819Z,73.38
2023-04-30T08:22:10.823Z,72.07
2023-04-30T08:23:10.788Z,71.97
2023-04-30T08:24:10.811Z,72.38
2023-04-30T08:25:10.778Z,72.58
2023-04-30T08:26:10.754Z,73.38
2023-04-30T08:27:10.769Z,72.07
2023-04-30T08:28:10.756Z,71.87
2023-04-30T08:29:10.718Z,72.78
2023-04-30T08:30:10.716Z,72.44
2023-04-30T08:31:10.695Z,73.25
2023-04-30T08:32:10.783Z,71.20
2023-04-30T08:33:10.743Z,70.73
2023-04-30T08:34:10.670Z,72.68
2023-04-30T08:35:10.671Z,73.38
2023-04-30T08:36:10.660Z,71.97
2023-04-30T08:37:10.640Z,74.05
2023-04-30T08:38:10.633Z,72.04
2023-04-30T08:39:10.610Z,73.22
2023-04-30T08:40:10.604Z,72.58
2023-04-30T08:41:10.615Z,70.79
2023-04-30T08:42:10.601Z,70.39
2023-04-30T08:43:10.567Z,70.26
2023-04-30T08:44:10.622Z,71.37
2023-04-30T08:45:10.539Z,71.23
2023-04-30T08:46:10.620Z,68.78
2023-04-30T08:47:10.527Z,68.08
2023-04-30T08:48:10.547Z,68.51
2023-04-30T08:49:10.502Z,71.00
2023-04-30T08:50:10.514Z,68.98
2023-04-30T08:51:10.477Z,69.05
2023-04-30T08:52:10.476Z,69.35
2023-04-30T08:53:10.458Z,71.67
2023-04-30T08:54:10.577Z,69.05
2023-04-30T08:55:10.451Z,68.21
2023-04-30T08:56:10.452Z,69.82
2023-04-30T08:57:10.445Z,70.29
2023-04-30T08:58:10.439Z,68.01
2023-04-30T08:59:10.413Z,69.05
2023-04-30T09:00:10.420Z,69.45
2023-04-30T09:01:10.450Z,68.51
2023-04-30T09:02:10.489Z,68.61
2023-04-30T09:03:10.404Z,66.50
2023-04-30T09:04:10.443Z,68.51
2023-04-30T09:05:10.368Z,67.07
2023-04-30T09:06:10.364Z,68.91
2023-04-30T09:07:10.305Z,66.80
2023-04-30T09:08:10.340Z,67.13
2023-04-30T09:09:10.282Z,68.77
2023-04-30T09:10:10.286Z,68.65
2023-04-30T09:11:10.279Z,66.63
2023-04-30T09:12:10.269Z,68.61
2023-04-30T09:13:10.255Z,67.30
2023-04-30T09:14:10.268Z,66.27
2023-04-30T09:15:10.213Z,66.97
2023-04-30T09:16:10.351Z,64.92
2023-04-30T09:17:10.199Z,64.92
2023-04-30T09:18:10.244Z,65.22
2023-04-30T09:19:10.172Z,66.71
2023-04-30T09:20:10.199Z,65.97
2023-04-30T09:21:10.157Z,64.06
2023-04-30T09:22:10.146Z,65.13
2023-04-30T09:23:10.163Z,63.53
2023-04-30T09:24:10.510Z,62.95
2023-04-30T09:25:10.124Z,64.29
2023-04-30T09:26:10.158Z,63.25
2023-04-30T09:27:10.110Z,62.35
2023-04-30T09:28:10.104Z,61.01
2023-04-30T09:29:10.104Z,59.08
2023-04-30T09:30:10.061Z,59.78
2023-04-30T09:31:10.089Z,56.36
2023-04-30T09:32:10.059Z,55.18
2023-04-30T09:33:11.934Z,55.16
2023-04-30T09:34:10.014Z,55.55
2023-04-30T09:35:10.006Z,55.26
2023-04-30T09:36:10.025Z,55.26
2023-04-30T09:37:09.989Z,55.16
2023-04-30T09:38:09.991Z,54.35
2023-04-30T09:39:11.996Z,55.76
2023-04-30T09:40:09.953Z,55.53
2023-04-30T09:41:09.963Z,55.93
2023-04-30T09:42:09.966Z,54.80
2023-04-30T09:43:09.917Z,54.88
2023-04-30T09:44:09.928Z,55.38
2023-04-30T09:45:09.935Z,54.97
2023-04-30T09:46:09.929Z,53.07
2023-04-30T09:47:09.942Z,53.20
2023-04-30T09:48:17.249Z,55.28
2023-04-30T09:49:10.879Z,54.85
2023-04-30T09:50:09.864Z,53.97
2023-04-30T09:51:09.830Z,55.30
2023-04-30T09:52:09.820Z,54.80
2023-04-30T09:53:18.424Z,53.27
2023-04-30T09:54:09.803Z,51.97
2023-04-30T09:55:09.821Z,51.37
2023-04-30T09:56:09.777Z,50.94
2023-04-30T09:57:09.775Z,48.43
2023-04-30T09:58:09.816Z,49.04
2023-04-30T09:59:09.766Z,48.23
2023-04-30T10:00:09.732Z,49.21
2023-04-30T10:01:09.785Z,49.41
2023-04-30T10:02:09.722Z,51.51
2023-04-30T10:03:09.777Z,52.01
2023-04-30T10:04:09.750Z,50.42
2023-04-30T10:05:09.702Z,48.21
2023-04-30T10:06:09.688Z,50.21
2023-04-30T10:07:09.673Z,50.42
2023-04-30T10:08:09.655Z,50.19
2023-04-30T10:09:09.645Z,50.71
2023-04-30T10:10:09.670Z,49.39
2023-04-30T10:11:09.619Z,50.39
2023-04-30T10:12:09.609Z,50.09
2023-04-30T10:13:09.613Z,48.69
2023-04-30T10:14:09.596Z,50.29
2023-04-30T10:15:09.601Z,47.96
2023-04-30T10:16:09.617Z,47.78
2023-04-30T10:17:09.570Z,45.80
2023-04-30T10:18:09.556Z,46.50
2023-04-30T10:19:09.540Z,47.20
2023-04-30T10:20:09.553Z,48.61
2023-04-30T10:21:09.516Z,47.41
2023-04-30T10:22:09.526Z,48.89
2023-04-30T10:23:09.578Z,47.76
2023-04-30T10:24:09.498Z,47.28
2023-04-30T10:25:09.466Z,47.91
2023-04-30T10:26:09.466Z,46.61
2023-04-30T10:27:09.464Z,48.21
2023-04-30T10:28:09.436Z,47.50
2023-04-30T10:29:09.431Z,46.30
2023-04-30T10:30:09.443Z,47.43
2023-04-30T10:31:09.404Z,46.70
2023-04-30T10:32:09.417Z,46.70
2023-04-30T10:33:09.562Z,46.61
2023-04-30T10:34:09.394Z,48.41
2023-04-30T10:35:09.380Z,47.43
2023-04-30T10:36:09.359Z,46.70
2023-04-30T10:37:09.341Z,48.41
2023-04-30T10:38:09.318Z,48.38
2023-04-30T10:39:09.343Z,47.71
2023-04-30T10:40:09.320Z,47.50
2023-04-30T10:41:09.336Z,47.58
2023-04-30T10:42:09.289Z,46.26
2023-04-30T10:43:09.308Z,47.36
2023-04-30T10:44:09.299Z,48.07
2023-04-30T10:45:09.253Z,47.76
2023-04-30T10:46:09.290Z,46.84
2023-04-30T10:47:09.244Z,47.24
2023-04-30T10:48:09.337Z,48.04
2023-04-30T10:49:09.223Z,47.02
2023-04-30T10:50:09.205Z,47.02
2023-04-30T10:51:09.184Z,47.16
2023-04-30T10:52:09.177Z,46.58
2023-04-30T10:53:09.185Z,46.11
2023-04-30T10:54:09.156Z,46.50
2023-04-30T10:55:09.144Z,48.11
2023-04-30T10:56:09.816Z,48.41
2023-04-30T10:57:09.137Z,48.33
2023-04-30T10:58:09.105Z,50.04
2023-04-30T10:59:09.110Z,48.58
2023-04-30T11:00:09.092Z,51.19
2023-04-30T11:01:09.144Z,48.38
2023-04-30T11:02:09.060Z,48.88
2023-04-30T11:03:09.083Z,48.25
2023-04-30T11:04:09.037Z,48.48
2023-04-30T11:05:09.134Z,49.01
2023-04-30T11:06:09.069Z,48.48
2023-04-30T11:07:09.029Z,48.38
2023-04-30T11:08:09.017Z,48.48
2023-04-30T11:09:08.990Z,48.96
2023-04-30T11:10:08.970Z,48.43
2023-04-30T11:11:08.982Z,47.43
2023-04-30T11:12:08.972Z,48.73
2023-04-30T11:13:08.958Z,47.33
2023-04-30T11:14:08.946Z,46.91
2023-04-30T11:15:08.919Z,47.83
2023-04-30T11:16:08.971Z,49.93
2023-04-30T11:17:08.925Z,50.13
2023-04-30T11:18:08.961Z,48.41
2023-04-30T11:19:11.318Z,48.23
2023-04-30T11:20:08.868Z,47.43
2023-04-30T11:21:08.884Z,48.05
2023-04-30T11:22:08.857Z,48.66
2023-04-30T11:23:08.866Z,47.55
2023-04-30T11:24:08.827Z,47.27
2023-04-30T11:25:08.824Z,49.28
2023-04-30T11:26:08.799Z,48.66
2023-04-30T11:27:08.800Z,48.25
2023-04-30T11:28:08.818Z,47.83
2023-04-30T11:29:08.856Z,48.71
2023-04-30T11:30:08.765Z,50.31
2023-04-30T11:31:08.901Z,48.49
2023-04-30T11:32:08.740Z,46.08
2023-04-30T11:33:08.813Z,46.68
2023-04-30T11:34:08.742Z,46.11
2023-04-30T11:35:08.713Z,47.41
2023-04-30T11:36:08.695Z,48.41
2023-04-30T11:37:08.708Z,46.42
2023-04-30T11:38:08.691Z,46.55
2023-04-30T11:39:08.678Z,47.65
2023-04-30T11:40:08.673Z,47.45
2023-04-30T11:41:08.652Z,46.47
2023-04-30T11:42:08.630Z,47.25
2023-04-30T11:43:08.659Z,48.38
2023-04-30T11:44:08.610Z,48.86
2023-04-30T11:45:08.618Z,47.96
2023-04-30T11:46:08.698Z,47.85
2023-04-30T11:47:08.799Z,48.55
2023-04-30T11:48:08.597Z,48.23
2023-04-30T11:49:08.565Z,48.93
2023-04-30T11:50:08.683Z,48.73
2023-04-30T11:51:08.539Z,48.43
2023-04-30T11:52:08.552Z,48.13
2023-04-30T11:53:08.535Z,50.24
2023-04-30T11:54:08.507Z,49.21
2023-04-30T11:55:08.502Z,50.09
2023-04-30T11:56:08.501Z,48.49
2023-04-30T11:57:08.482Z,48.71
2023-04-30T11:58:08.461Z,48.79
2023-04-30T11:59:08.497Z,48.28
2023-04-30T12:00:08.501Z,50.26
2023-04-30T12:01:08.449Z,47.49
2023-04-30T12:02:08.577Z,47.78
2023-04-30T12:03:08.477Z,48.01
2023-04-30T12:04:08.451Z,48.31
2023-04-30T12:05:08.401Z,48.33
2023-04-30T12:06:08.423Z,47.33
2023-04-30T12:07:08.372Z,47.15
2023-04-30T12:08:08.388Z,49.48
2023-04-30T12:09:08.470Z,49.58
2023-04-30T12:10:08.406Z,50.48
2023-04-30T12:11:08.349Z,49.86
2023-04-30T12:12:08.335Z,49.56
2023-04-30T12:13:08.320Z,48.86
2023-04-30T12:14:08.308Z,48.25
2023-04-30T12:15:08.282Z,48.43
2023-04-30T12:16:08.288Z,48.83
2023-04-30T12:17:08.265Z,49.16
2023-04-30T12:18:09.544Z,49.54
2023-04-30T12:19:08.272Z,48.23
2023-04-30T12:20:08.263Z,48.01
2023-04-30T12:21:08.240Z,48.31
2023-04-30T12:22:08.234Z,48.08
2023-04-30T12:23:08.236Z,48.51
2023-04-30T12:24:08.222Z,46.70
2023-04-30T12:25:08.222Z,46.30
2023-04-30T12:26:08.160Z,46.12
2023-04-30T12:27:08.166Z,47.96
2023-04-30T12:28:08.163Z,48.35
2023-04-30T12:29:08.144Z,49.26
2023-04-30T12:30:08.219Z,48.96
2023-04-30T12:31:08.112Z,49.76
2023-04-30T12:32:08.185Z,49.18
2023-04-30T12:33:08.125Z,50.79
2023-04-30T12:34:08.092Z,50.68
2023-04-30T12:35:08.094Z,50.01
2023-04-30T12:36:08.076Z,50.51
2023-04-30T12:37:08.077Z,51.51
2023-04-30T12:38:08.039Z,49.40
2023-04-30T12:39:08.044Z,48.18
2023-04-30T12:40:08.103Z,48.70
2023-04-30T12:41:08.018Z,49.88
2023-04-30T12:42:08.011Z,48.55
2023-04-30T12:43:08.024Z,48.33
2023-04-30T12:44:07.988Z,48.75
2023-04-30T12:45:07.980Z,49.43
2023-04-30T12:46:08.021Z,48.11
2023-04-30T12:47:07.944Z,48.31
2023-04-30T12:48:07.976Z,48.01
2023-04-30T12:49:07.945Z,45.90
2023-04-30T12:50:07.923Z,48.21
2023-04-30T12:51:07.909Z,48.11
2023-04-30T12:52:07.891Z,48.21